Terminal Aerodrome Forecast
Issued by NWS

Current Version | Previous Version | Text Only | Print | Product List | Glossary Off
Versions: 1 2 3 4 5 6 7 8 9 10 11 12 13 14 15

000
FTUS41 KALY 091722
TAFPSF
TAF
KPSF 091722Z 0918/1018 25009KT P6SM BKN040 OVC120
      TEMPO 0921/0923 6SM -RA BKN025 OVC040
     FM092300 VRB05KT 6SM -RA BKN025 OVC040
     FM100200 VRB03KT 3SM -RA BR SCT008 BKN010 OVC030
     FM101000 VRB03KT 3SM BR SCT008 BKN010 OVC030
     FM101200 VRB04KT P6SM BKN015 OVC025
     FM101600 27007KT P6SM VCSH BKN025 OVC035=

USA.gov is the U.S. government's official web portal to all federal, state and local government web resources and services.